createdAt,value
2017-07-27T00:00:54.127Z,20.13
2017-07-27T00:01:54.117Z,20.24
2017-07-27T00:02:54.111Z,20.2
2017-07-27T00:03:54.412Z,20.18
2017-07-27T00:04:54.439Z,20.12
2017-07-27T00:05:54.081Z,20.15
2017-07-27T00:06:54.387Z,20.06
2017-07-27T00:07:54.380Z,20.1
2017-07-27T00:08:54.053Z,20
2017-07-27T00:09:54.098Z,20.02
2017-07-27T00:10:54.034Z,20
2017-07-27T00:11:54.035Z,19.97
2017-07-27T00:12:53.706Z,19.84
2017-07-27T00:13:54.323Z,19.7
2017-07-27T00:14:54.316Z,19.69
2017-07-27T00:15:54.308Z,19.61
2017-07-27T00:16:53.977Z,19.53
2017-07-27T00:17:54.023Z,19.53
2017-07-27T00:18:53.960Z,19.46
2017-07-27T00:19:53.954Z,19.42
2017-07-27T00:20:54.265Z,19.47
2017-07-27T00:21:54.456Z,19.4
2017-07-27T00:22:53.934Z,19.46
2017-07-27T00:23:53.918Z,19.39
2017-07-27T00:24:54.220Z,19.33
2017-07-27T00:25:53.584Z,19.32
2017-07-27T00:26:53.883Z,19.43
2017-07-27T00:27:53.566Z,19.33
2017-07-27T00:28:54.181Z,19.35
2017-07-27T00:29:53.860Z,19.38
2017-07-27T00:30:54.163Z,19.29
2017-07-27T00:31:53.838Z,19.32
2017-07-27T00:32:53.830Z,19.31
2017-07-27T00:33:54.129Z,19.31
2017-07-27T00:34:54.331Z,19.35
2017-07-27T00:35:53.489Z,19.33
2017-07-27T00:36:54.108Z,19.35
2017-07-27T00:37:54.093Z,19.32
2017-07-27T00:38:53.772Z,19.36
2017-07-27T00:39:54.072Z,19.35
2017-07-27T00:40:53.437Z,19.31
2017-07-27T00:41:53.742Z,19.31
2017-07-27T00:42:53.734Z,19.31
2017-07-27T00:43:54.035Z,19.36
2017-07-27T00:44:53.719Z,19.25
2017-07-27T00:45:54.028Z,19.23
2017-07-27T00:46:54.008Z,19.33
2017-07-27T00:47:53.686Z,19.23
2017-07-27T00:48:53.683Z,19.25
2017-07-27T00:49:53.669Z,19.33
2017-07-27T00:50:53.972Z,19.31
2017-07-27T00:51:53.642Z,19.32
2017-07-27T00:52:53.636Z,19.28
2017-07-27T00:53:53.631Z,19.24
2017-07-27T00:54:53.929Z,19.31
2017-07-27T00:55:53.298Z,19.23
2017-07-27T00:56:53.912Z,19.24
2017-07-27T00:57:53.906Z,19.21
2017-07-27T00:58:53.892Z,19.25
2017-07-27T00:59:53.877Z,19.2
2017-07-27T01:00:53.877Z,19.23
2017-07-27T01:01:53.553Z,19.21
2017-07-27T01:02:53.557Z,19.25
2017-07-27T01:03:53.543Z,19.18
2017-07-27T01:04:53.522Z,19.17
2017-07-27T01:05:53.821Z,19.17
2017-07-27T01:06:53.820Z,19.21
2017-07-27T01:07:53.491Z,19.17
2017-07-27T01:08:53.485Z,19.23
2017-07-27T01:09:53.477Z,19.2
2017-07-27T01:10:53.777Z,19.18
2017-07-27T01:11:53.143Z,19.23
2017-07-27T01:12:53.756Z,19.17
2017-07-27T01:13:53.431Z,19.23
2017-07-27T01:14:53.628Z,19.2
2017-07-27T01:15:53.303Z,19.17
2017-07-27T01:16:53.406Z,19.23
2017-07-27T01:17:53.707Z,19.17
2017-07-27T01:18:53.695Z,19.17
2017-07-27T01:19:53.067Z,19.2
2017-07-27T01:20:53.365Z,19.2
2017-07-27T01:21:53.666Z,19.14
2017-07-27T01:22:53.662Z,19.18
2017-07-27T01:23:53.651Z,19.15
2017-07-27T01:24:53.651Z,19.17
2017-07-27T01:25:53.628Z,19.14
2017-07-27T01:26:52.991Z,19.18
2017-07-27T01:27:53.303Z,19.18
2017-07-27T01:28:53.292Z,19.18
2017-07-27T01:29:53.282Z,19.23
2017-07-27T01:30:53.580Z,19.25
2017-07-27T01:31:53.258Z,19.21
2017-07-27T01:32:52.934Z,19.21
2017-07-27T01:33:53.241Z,19.2
2017-07-27T01:34:53.234Z,19.24
2017-07-27T01:35:53.528Z,19.24
2017-07-27T01:36:52.905Z,19.2
2017-07-27T01:37:53.515Z,19.23
2017-07-27T01:38:53.507Z,19.18
2017-07-27T01:39:53.185Z,19.21
2017-07-27T01:40:53.487Z,19.21
2017-07-27T01:41:53.475Z,19.18
2017-07-27T01:42:53.151Z,19.2
2017-07-27T01:43:53.469Z,19.33
2017-07-27T01:44:52.820Z,19.21
2017-07-27T01:45:53.124Z,19.23
2017-07-27T01:46:52.804Z,19.32
2017-07-27T01:47:53.419Z,19.25
2017-07-27T01:48:53.091Z,19.31
2017-07-27T01:49:53.396Z,19.25
2017-07-27T01:50:52.760Z,19.25
2017-07-27T01:51:53.377Z,19.25
2017-07-27T01:52:53.055Z,19.23
2017-07-27T01:53:53.043Z,19.25
2017-07-27T01:54:53.037Z,19.24
2017-07-27T01:55:53.026Z,19.24
2017-07-27T01:56:53.020Z,19.17
2017-07-27T01:57:52.693Z,19.23
2017-07-27T01:58:53.309Z,19.18
2017-07-27T01:59:53.297Z,19.13
2017-07-27T02:00:52.972Z,19.1
2017-07-27T02:01:52.981Z,19.17
2017-07-27T02:02:52.956Z,19.08
2017-07-27T02:03:53.275Z,19.01
2017-07-27T02:04:53.244Z,19.06
2017-07-27T02:05:53.241Z,19.05
2017-07-27T02:06:52.604Z,19.02
2017-07-27T02:07:52.908Z,18.99
2017-07-27T02:08:52.903Z,19.01
2017-07-27T02:09:53.196Z,18.97
2017-07-27T02:10:52.567Z,18.95
2017-07-27T02:11:52.870Z,18.98
2017-07-27T02:12:53.163Z,18.95
2017-07-27T02:13:52.842Z,18.92
2017-07-27T02:14:52.844Z,18.94
2017-07-27T02:15:53.152Z,18.82
2017-07-27T02:16:53.158Z,18.91
2017-07-27T02:17:52.500Z,18.8
2017-07-27T02:18:52.796Z,18.8
2017-07-27T02:19:53.130Z,18.82
2017-07-27T02:20:52.769Z,18.79
2017-07-27T02:21:53.076Z,18.74
2017-07-27T02:22:53.064Z,18.68
2017-07-27T02:23:52.745Z,18.57
2017-07-27T02:24:53.057Z,18.59
2017-07-27T02:25:53.038Z,18.55
2017-07-27T02:26:52.710Z,18.55
2017-07-27T02:27:53.011Z,18.57
2017-07-27T02:28:52.696Z,18.44
2017-07-27T02:29:52.997Z,18.44
2017-07-27T02:30:52.670Z,18.37
2017-07-27T02:31:52.994Z,18.37
2017-07-27T02:32:52.335Z,18.39
2017-07-27T02:33:52.641Z,18.33
2017-07-27T02:34:52.940Z,18.39
2017-07-27T02:35:52.621Z,18.37
2017-07-27T02:36:52.922Z,18.27
2017-07-27T02:37:52.911Z,18.33
2017-07-27T02:38:52.900Z,18.24
2017-07-27T02:39:52.595Z,18.19
2017-07-27T02:40:52.566Z,18.22
2017-07-27T02:41:52.254Z,18.21
2017-07-27T02:42:52.868Z,18.22
2017-07-27T02:43:52.218Z,18.17
2017-07-27T02:44:52.523Z,18.13
2017-07-27T02:45:52.832Z,18.22
2017-07-27T02:46:52.819Z,18.18
2017-07-27T02:47:52.489Z,18.27
2017-07-27T02:48:52.480Z,18.18
2017-07-27T02:49:52.778Z,18.22
2017-07-27T02:50:52.798Z,18.22
2017-07-27T02:51:52.761Z,18.18
2017-07-27T02:52:52.747Z,18.17
2017-07-27T02:53:52.426Z,18.15
2017-07-27T02:54:52.727Z,18.17
2017-07-27T02:55:52.404Z,18.15
2017-07-27T02:56:52.390Z,18.19
2017-07-27T02:57:52.377Z,18.18
2017-07-27T02:58:52.374Z,18.24
2017-07-27T02:59:52.670Z,18.21
2017-07-27T03:00:52.353Z,18.19
2017-07-27T03:01:52.343Z,18.19
2017-07-27T03:02:52.639Z,18.22
2017-07-27T03:03:52.628Z,18.15
2017-07-27T03:04:51.996Z,18.22
2017-07-27T03:05:52.602Z,18.29
2017-07-27T03:06:52.282Z,18.28
2017-07-27T03:07:52.272Z,18.22
2017-07-27T03:08:52.573Z,18.24
2017-07-27T03:09:52.252Z,18.25
2017-07-27T03:10:52.568Z,18.21
2017-07-27T03:11:52.540Z,18.25
2017-07-27T03:12:52.224Z,18.27
2017-07-27T03:13:52.205Z,18.29
2017-07-27T03:14:52.721Z,18.22
2017-07-27T03:15:52.494Z,18.25
2017-07-27T03:16:52.193Z,18.27
2017-07-27T03:17:52.165Z,18.28
2017-07-27T03:18:52.154Z,18.24
2017-07-27T03:19:52.456Z,18.27
2017-07-27T03:20:51.818Z,18.21
2017-07-27T03:21:52.167Z,18.19
2017-07-27T03:22:52.429Z,18.25
2017-07-27T03:23:52.421Z,18.28
2017-07-27T03:24:52.403Z,18.21
2017-07-27T03:25:52.395Z,18.25
2017-07-27T03:26:52.068Z,18.29
2017-07-27T03:27:52.063Z,18.27
2017-07-27T03:28:52.050Z,18.29
2017-07-27T03:29:52.356Z,18.27
2017-07-27T03:30:52.032Z,18.33
2017-07-27T03:31:51.717Z,18.25
2017-07-27T03:32:52.008Z,18.34
2017-07-27T03:33:52.001Z,18.28
2017-07-27T03:34:51.987Z,18.31
2017-07-27T03:35:51.974Z,18.34
2017-07-27T03:36:51.698Z,18.34
2017-07-27T03:37:51.951Z,18.31
2017-07-27T03:38:51.627Z,18.36
2017-07-27T03:39:51.623Z,18.31
2017-07-27T03:40:51.924Z,18.31
2017-07-27T03:41:52.224Z,18.27
2017-07-27T03:42:52.214Z,18.22
2017-07-27T03:43:51.580Z,18.31
2017-07-27T03:44:52.193Z,18.28
2017-07-27T03:45:51.867Z,18.33
2017-07-27T03:46:51.869Z,18.29
2017-07-27T03:47:52.156Z,18.27
2017-07-27T03:48:52.148Z,18.21
2017-07-27T03:49:51.822Z,18.24
2017-07-27T03:50:52.125Z,18.21
2017-07-27T03:51:51.513Z,18.18
2017-07-27T03:52:52.105Z,18.19
2017-07-27T03:53:51.780Z,18.28
2017-07-27T03:54:52.111Z,18.25
2017-07-27T03:55:51.769Z,18.22
2017-07-27T03:56:51.748Z,18.22
2017-07-27T03:57:51.744Z,18.27
2017-07-27T03:58:52.044Z,18.27
2017-07-27T03:59:52.031Z,18.33
2017-07-27T04:00:52.020Z,18.34
2017-07-27T04:01:51.394Z,18.29
2017-07-27T04:02:51.688Z,18.33
2017-07-27T04:03:51.370Z,18.36
2017-07-27T04:04:51.673Z,18.4
2017-07-27T04:05:51.968Z,18.4
2017-07-27T04:06:51.963Z,18.4
2017-07-27T04:07:51.945Z,18.39
2017-07-27T04:08:51.937Z,18.42
2017-07-27T04:09:51.612Z,18.4
2017-07-27T04:10:51.601Z,18.43
2017-07-27T04:11:51.905Z,18.44
2017-07-27T04:12:51.895Z,18.34
2017-07-27T04:13:51.884Z,18.37
2017-07-27T04:14:51.874Z,18.47
2017-07-27T04:15:51.554Z,18.46
2017-07-27T04:16:51.538Z,18.49
2017-07-27T04:17:51.549Z,18.47
2017-07-27T04:18:51.830Z,18.52
2017-07-27T04:19:51.196Z,18.43
2017-07-27T04:20:51.498Z,18.52
2017-07-27T04:21:51.174Z,18.47
2017-07-27T04:22:51.164Z,18.39
2017-07-27T04:23:51.463Z,18.49
2017-07-27T04:24:51.766Z,18.5
2017-07-27T04:25:51.441Z,18.42
2017-07-27T04:26:51.120Z,18.43
2017-07-27T04:27:51.429Z,18.49
2017-07-27T04:28:51.408Z,18.44
2017-07-27T04:29:51.403Z,18.44
2017-07-27T04:30:51.717Z,18.5
2017-07-27T04:31:51.717Z,18.49
2017-07-27T04:32:51.733Z,18.44
2017-07-27T04:33:51.673Z,18.44
2017-07-27T04:34:51.040Z,18.46
2017-07-27T04:35:51.666Z,18.43
2017-07-27T04:36:51.328Z,18.54
2017-07-27T04:37:51.002Z,18.39
2017-07-27T04:38:51.317Z,18.44
2017-07-27T04:39:51.609Z,18.5
2017-07-27T04:40:51.283Z,18.44
2017-07-27T04:41:51.593Z,18.49
2017-07-27T04:42:51.281Z,18.52
2017-07-27T04:43:50.938Z,18.61
2017-07-27T04:44:51.559Z,18.5
2017-07-27T04:45:51.240Z,18.57
2017-07-27T04:46:51.224Z,18.55
2017-07-27T04:47:51.214Z,18.59
2017-07-27T04:48:50.893Z,18.54
2017-07-27T04:49:51.502Z,18.54
2017-07-27T04:50:50.874Z,18.55
2017-07-27T04:51:51.173Z,18.57
2017-07-27T04:52:51.166Z,18.67
2017-07-27T04:53:50.838Z,18.65
2017-07-27T04:54:51.143Z,18.62
2017-07-27T04:55:51.129Z,18.64
2017-07-27T04:56:51.125Z,18.58
2017-07-27T04:57:51.116Z,18.62
2017-07-27T04:58:51.420Z,18.67
2017-07-27T04:59:51.101Z,18.62
2017-07-27T05:00:50.769Z,18.79
2017-07-27T05:01:50.758Z,18.79
2017-07-27T05:02:51.371Z,18.76
2017-07-27T05:03:51.371Z,18.79
2017-07-27T05:04:51.351Z,18.8
2017-07-27T05:05:51.027Z,18.82
2017-07-27T05:06:51.029Z,18.79
2017-07-27T05:07:51.008Z,18.8
2017-07-27T05:08:50.994Z,18.77
2017-07-27T05:09:50.673Z,18.79
2017-07-27T05:10:50.691Z,18.83
2017-07-27T05:11:51.276Z,18.77
2017-07-27T05:12:50.957Z,18.82
2017-07-27T05:13:50.947Z,18.8
2017-07-27T05:14:51.138Z,18.82
2017-07-27T05:15:50.927Z,18.8
2017-07-27T05:16:51.227Z,18.8
2017-07-27T05:17:51.243Z,18.84
2017-07-27T05:18:51.213Z,18.9
2017-07-27T05:19:50.886Z,18.87
2017-07-27T05:20:51.198Z,18.94
2017-07-27T05:21:51.181Z,18.91
2017-07-27T05:22:50.854Z,18.92
2017-07-27T05:23:50.845Z,18.91
2017-07-27T05:24:50.837Z,18.92
2017-07-27T05:25:51.143Z,18.84
2017-07-27T05:26:50.506Z,18.9
2017-07-27T05:27:51.116Z,18.87
2017-07-27T05:28:51.107Z,18.9
2017-07-27T05:29:51.101Z,18.91
2017-07-27T05:30:50.782Z,18.92
2017-07-27T05:31:50.766Z,18.92
2017-07-27T05:32:51.070Z,18.9
2017-07-27T05:33:50.749Z,18.9
2017-07-27T05:34:50.738Z,18.91
2017-07-27T05:35:50.413Z,18.97
2017-07-27T05:36:50.750Z,18.94
2017-07-27T05:37:51.020Z,18.95
2017-07-27T05:38:50.700Z,19.05
2017-07-27T05:39:50.689Z,19.02
2017-07-27T05:40:50.676Z,19.13
2017-07-27T05:41:50.981Z,19.17
2017-07-27T05:42:50.339Z,19.15
2017-07-27T05:43:50.649Z,19.21
2017-07-27T05:44:50.954Z,19.23
2017-07-27T05:45:50.627Z,19.25
2017-07-27T05:46:50.929Z,19.33
2017-07-27T05:47:50.608Z,19.33
2017-07-27T05:48:50.628Z,19.4
2017-07-27T05:49:50.586Z,19.46
2017-07-27T05:50:50.579Z,19.48
2017-07-27T05:51:50.569Z,19.55
2017-07-27T05:52:50.275Z,19.54
2017-07-27T05:53:50.549Z,19.42
2017-07-27T05:54:50.545Z,19.57
2017-07-27T05:55:50.842Z,19.63
2017-07-27T05:56:50.209Z,19.72
2017-07-27T05:57:50.514Z,19.65
2017-07-27T05:58:50.197Z,19.72
2017-07-27T05:59:50.809Z,19.84
2017-07-27T06:00:50.482Z,19.78
2017-07-27T06:01:50.477Z,19.84
2017-07-27T06:02:50.784Z,19.84
2017-07-27T06:03:50.460Z,19.93
2017-07-27T06:04:50.447Z,19.9
2017-07-27T06:05:50.441Z,19.94
2017-07-27T06:06:50.739Z,19.95
2017-07-27T06:07:50.726Z,19.97
2017-07-27T06:08:50.721Z,20
2017-07-27T06:09:50.402Z,19.98
2017-07-27T06:10:50.100Z,19.91
2017-07-27T06:11:50.695Z,19.97
2017-07-27T06:12:50.689Z,19.98
2017-07-27T06:13:50.725Z,19.91
2017-07-27T06:14:50.042Z,19.93
2017-07-27T06:15:50.033Z,19.94
2017-07-27T06:16:50.334Z,19.97
2017-07-27T06:17:50.641Z,19.9
2017-07-27T06:18:50.630Z,19.9
2017-07-27T06:19:50.623Z,19.87
2017-07-27T06:20:50.618Z,19.86
2017-07-27T06:21:49.983Z,19.8
2017-07-27T06:22:50.287Z,19.8
2017-07-27T06:23:50.271Z,19.75
2017-07-27T06:24:50.279Z,19.88
2017-07-27T06:25:50.261Z,19.86
2017-07-27T06:26:50.558Z,19.93
2017-07-27T06:27:50.238Z,20
2017-07-27T06:28:50.225Z,19.94
2017-07-27T06:29:50.535Z,19.98
2017-07-27T06:30:49.898Z,19.95
2017-07-27T06:31:50.201Z,20
2017-07-27T06:32:50.500Z,19.98
2017-07-27T06:33:50.183Z,19.94
2017-07-27T06:34:50.488Z,20.02
2017-07-27T06:35:50.165Z,19.98
2017-07-27T06:36:50.470Z,20.03
2017-07-27T06:37:50.461Z,20
2017-07-27T06:38:50.142Z,20.05
2017-07-27T06:39:50.449Z,19.95
2017-07-27T06:40:50.130Z,20.03
2017-07-27T06:41:50.114Z,20.03
2017-07-27T06:42:50.113Z,20.1
2017-07-27T06:43:50.098Z,20.09
2017-07-27T06:44:50.087Z,20.27
2017-07-27T06:45:50.394Z,20.28
2017-07-27T06:46:50.065Z,20.3
2017-07-27T06:47:50.067Z,20.39
2017-07-27T06:48:50.364Z,20.39
2017-07-27T06:49:50.359Z,20.43
2017-07-27T06:50:50.349Z,20.53
2017-07-27T06:51:50.027Z,20.59
2017-07-27T06:52:50.025Z,20.68
2017-07-27T06:53:50.318Z,20.66
2017-07-27T06:54:50.310Z,20.69
2017-07-27T06:55:50.304Z,20.76
2017-07-27T06:56:49.995Z,20.66
2017-07-27T06:57:50.288Z,20.77
2017-07-27T06:58:49.965Z,20.79
2017-07-27T06:59:50.270Z,20.72
2017-07-27T07:00:50.262Z,20.77
2017-07-27T07:01:50.257Z,20.76
2017-07-27T07:02:49.930Z,20.65
2017-07-27T07:03:50.233Z,20.74
2017-07-27T07:04:49.916Z,20.8
2017-07-27T07:05:50.228Z,20.86
2017-07-27T07:06:49.902Z,20.87
2017-07-27T07:07:50.208Z,20.86
2017-07-27T07:08:50.191Z,20.89
2017-07-27T07:09:49.883Z,20.91
2017-07-27T07:10:49.872Z,20.84
2017-07-27T07:11:49.865Z,20.87
2017-07-27T07:12:49.851Z,20.9
2017-07-27T07:13:49.844Z,20.83
2017-07-27T07:14:50.270Z,20.8
2017-07-27T07:15:49.831Z,20.79
2017-07-27T07:16:49.817Z,20.77
2017-07-27T07:17:50.123Z,20.8
2017-07-27T07:18:50.122Z,20.83
2017-07-27T07:19:49.793Z,20.89
2017-07-27T07:20:49.484Z,20.87
2017-07-27T07:21:49.806Z,20.99
2017-07-27T07:22:49.970Z,20.95
2017-07-27T07:23:49.762Z,20.98
2017-07-27T07:24:49.762Z,20.93
2017-07-27T07:25:49.744Z,20.95
2017-07-27T07:26:50.050Z,20.96
2017-07-27T07:27:49.417Z,20.91
2017-07-27T07:28:49.412Z,21.01
2017-07-27T07:29:49.713Z,21.02
2017-07-27T07:30:49.726Z,21.08
2017-07-27T07:31:50.020Z,21.08
2017-07-27T07:32:49.689Z,21.09
2017-07-27T07:33:49.686Z,21.2
2017-07-27T07:34:49.987Z,21.11
2017-07-27T07:35:49.355Z,21.13
2017-07-27T07:36:49.977Z,21.11
2017-07-27T07:37:49.654Z,21.05
2017-07-27T07:38:49.963Z,21.08
2017-07-27T07:39:49.325Z,21.24
2017-07-27T07:40:49.941Z,21.21
2017-07-27T07:41:49.624Z,21.09
2017-07-27T07:42:49.610Z,21.11
2017-07-27T07:43:49.612Z,21.13
2017-07-27T07:44:49.598Z,21.08
2017-07-27T07:45:49.594Z,21.08
2017-07-27T07:46:49.906Z,21.2
2017-07-27T07:47:49.910Z,21.06
2017-07-27T07:48:49.876Z,21.19
2017-07-27T07:49:49.571Z,21.13
2017-07-27T07:50:49.544Z,21.08
2017-07-27T07:51:49.227Z,21.06
2017-07-27T07:52:49.222Z,21.05
2017-07-27T07:53:49.842Z,20.93
2017-07-27T07:54:49.832Z,20.9
2017-07-27T07:55:49.509Z,21.01
2017-07-27T07:56:49.192Z,21.01
2017-07-27T07:57:49.493Z,21.05
2017-07-27T07:58:49.489Z,21.01
2017-07-27T07:59:49.167Z,21.02
2017-07-27T08:00:49.472Z,21.01
2017-07-27T08:01:49.463Z,20.96
2017-07-27T08:02:49.142Z,20.99
2017-07-27T08:03:49.764Z,20.93
2017-07-27T08:04:49.440Z,20.95
2017-07-27T08:05:49.429Z,20.95
2017-07-27T08:06:49.121Z,20.98
2017-07-27T08:07:49.412Z,20.81
2017-07-27T08:08:49.092Z,20.89
2017-07-27T08:09:49.403Z,20.98
2017-07-27T08:10:49.083Z,20.9
2017-07-27T08:11:49.709Z,21.02
2017-07-27T08:12:49.378Z,21.06
2017-07-27T08:13:49.372Z,21.04
2017-07-27T08:14:49.364Z,21.05
2017-07-27T08:15:49.671Z,21.14
2017-07-27T08:16:49.661Z,21.23
2017-07-27T08:17:49.658Z,21.35
2017-07-27T08:18:49.642Z,21.29
2017-07-27T08:19:49.634Z,21.56
2017-07-27T08:20:49.002Z,21.88
2017-07-27T08:21:49.310Z,22.07
2017-07-27T08:22:48.991Z,22.02
2017-07-27T08:23:49.290Z,22.01
2017-07-27T08:24:49.604Z,22.07
2017-07-27T08:25:49.280Z,22.28
2017-07-27T08:26:49.273Z,22.28
2017-07-27T08:27:48.959Z,22.07
2017-07-27T08:28:49.573Z,22.19
2017-07-27T08:29:49.259Z,22.68
2017-07-27T08:30:49.248Z,23.31
2017-07-27T08:31:49.250Z,23.6
2017-07-27T08:32:49.236Z,23.35
2017-07-27T08:33:49.546Z,23.34
2017-07-27T08:34:49.538Z,23.32
2017-07-27T08:35:48.901Z,23.23
2017-07-27T08:36:49.214Z,23.09
2017-07-27T08:37:49.515Z,22.99
2017-07-27T08:38:49.510Z,22.83
2017-07-27T08:39:49.506Z,22.8
2017-07-27T08:40:49.504Z,22.87
2017-07-27T08:41:49.499Z,23.27
2017-07-27T08:42:49.491Z,23.49
2017-07-27T08:43:49.170Z,23.42
2017-07-27T08:44:49.484Z,23.55
2017-07-27T08:45:49.476Z,23.94
2017-07-27T08:46:49.473Z,24.59
2017-07-27T08:47:49.154Z,24.44
2017-07-27T08:48:48.837Z,24.07
2017-07-27T08:49:48.829Z,23.79
2017-07-27T08:50:48.827Z,23.47
2017-07-27T08:51:49.130Z,23.46
2017-07-27T08:52:49.132Z,23.15
2017-07-27T08:53:48.811Z,22.93
2017-07-27T08:54:49.113Z,22.84
2017-07-27T08:55:49.111Z,22.75
2017-07-27T08:56:49.106Z,22.64
2017-07-27T08:57:49.105Z,22.6
2017-07-27T08:58:48.789Z,22.32
2017-07-27T08:59:49.094Z,22.19
2017-07-27T09:00:49.138Z,22.12
2017-07-27T09:01:49.081Z,21.94
2017-07-27T09:02:49.392Z,21.79
2017-07-27T09:03:49.072Z,21.83
2017-07-27T09:04:49.062Z,21.76
2017-07-27T09:05:49.056Z,21.6
2017-07-27T09:06:49.425Z,21.63
2017-07-27T09:07:49.358Z,21.6
2017-07-27T09:08:49.353Z,21.6
2017-07-27T09:09:48.720Z,21.69
2017-07-27T09:10:49.025Z,21.71
2017-07-27T09:11:49.027Z,21.76
2017-07-27T09:12:49.008Z,22.01
2017-07-27T09:13:49.012Z,22.1
2017-07-27T09:14:49.000Z,22.32
2017-07-27T09:15:49.315Z,22.49
2017-07-27T09:16:48.988Z,22.54
2017-07-27T09:17:48.983Z,22.65
2017-07-27T09:18:48.976Z,22.6
2017-07-27T09:19:48.972Z,22.59
2017-07-27T09:20:48.960Z,22.6
2017-07-27T09:21:49.273Z,22.57
2017-07-27T09:22:48.951Z,22.67
2017-07-27T09:23:49.255Z,22.6
2017-07-27T09:24:49.256Z,22.68
2017-07-27T09:25:49.245Z,22.86
2017-07-27T09:26:49.238Z,23.01
2017-07-27T09:27:49.127Z,23.07
2017-07-27T09:28:49.229Z,23.01
2017-07-27T09:29:49.229Z,22.92
2017-07-27T09:30:48.902Z,23.14
2017-07-27T09:31:48.901Z,23.04
2017-07-27T09:32:49.203Z,23.14
2017-07-27T09:33:48.890Z,23.15
2017-07-27T09:34:49.197Z,23.15
2017-07-27T09:35:48.876Z,23.07
2017-07-27T09:36:48.570Z,23.05
2017-07-27T09:37:48.865Z,23.09
2017-07-27T09:38:49.171Z,23.01
2017-07-27T09:39:49.166Z,22.92
2017-07-27T09:40:48.847Z,22.8
2017-07-27T09:41:49.156Z,22.82
2017-07-27T09:42:48.524Z,22.86
2017-07-27T09:43:48.829Z,22.93
2017-07-27T09:44:49.136Z,22.9
2017-07-27T09:45:48.818Z,22.83
2017-07-27T09:46:49.013Z,22.74
2017-07-27T09:47:49.119Z,22.72
2017-07-27T09:48:48.798Z,22.78
2017-07-27T09:49:48.792Z,22.87
2017-07-27T09:50:48.785Z,22.9
2017-07-27T09:51:49.093Z,22.86
2017-07-27T09:52:48.464Z,23.02
2017-07-27T09:53:48.776Z,23.26
2017-07-27T09:54:48.768Z,23.32
2017-07-27T09:55:48.760Z,23.42
2017-07-27T09:56:48.753Z,23.4
2017-07-27T09:57:49.060Z,23.46
2017-07-27T09:58:48.741Z,23.4
2017-07-27T09:59:48.737Z,23.38
2017-07-27T10:00:48.422Z,23.15
2017-07-27T10:01:48.730Z,23.14
2017-07-27T10:02:48.405Z,22.99
2017-07-27T10:03:48.719Z,22.92
2017-07-27T10:04:48.706Z,22.82
2017-07-27T10:05:48.705Z,22.72
2017-07-27T10:06:48.386Z,22.69
2017-07-27T10:07:49.004Z,22.57
2017-07-27T10:08:48.689Z,22.49
2017-07-27T10:09:48.995Z,22.32
2017-07-27T10:10:49.007Z,22.29
2017-07-27T10:11:48.668Z,22.25
2017-07-27T10:12:48.352Z,22.31
2017-07-27T10:13:48.978Z,22.31
2017-07-27T10:14:48.659Z,22.29
2017-07-27T10:15:48.648Z,22.41
2017-07-27T10:16:48.982Z,22.47
2017-07-27T10:17:48.943Z,22.46
2017-07-27T10:18:48.631Z,22.65
2017-07-27T10:19:48.324Z,22.82
2017-07-27T10:20:48.626Z,22.75
2017-07-27T10:21:48.610Z,22.78
2017-07-27T10:22:48.914Z,22.86
2017-07-27T10:23:48.283Z,22.89
2017-07-27T10:24:48.915Z,22.84
2017-07-27T10:25:48.589Z,22.89
2017-07-27T10:26:48.269Z,22.93
2017-07-27T10:27:48.889Z,22.86
2017-07-27T10:28:48.881Z,22.87
2017-07-27T10:29:48.874Z,22.84
2017-07-27T10:30:48.561Z,22.83
2017-07-27T10:31:48.603Z,22.71
2017-07-27T10:32:48.875Z,22.72
2017-07-27T10:33:48.549Z,22.74
2017-07-27T10:34:48.535Z,22.6
2017-07-27T10:35:48.856Z,22.74
2017-07-27T10:36:48.532Z,22.8
2017-07-27T10:37:48.561Z,23.02
2017-07-27T10:38:48.860Z,23.22
2017-07-27T10:39:48.512Z,23.46
2017-07-27T10:40:48.817Z,23.34
2017-07-27T10:41:48.503Z,23.46
2017-07-27T10:42:48.808Z,23.62
2017-07-27T10:43:48.176Z,23.62
2017-07-27T10:44:48.482Z,23.71
2017-07-27T10:45:48.788Z,23.98
2017-07-27T10:46:48.484Z,24.19
2017-07-27T10:47:48.782Z,24.23
2017-07-27T10:48:48.775Z,24.37
2017-07-27T10:49:48.462Z,24.32
2017-07-27T10:50:48.144Z,24.42
2017-07-27T10:51:48.770Z,24.29
2017-07-27T10:52:48.135Z,24.35
2017-07-27T10:53:48.443Z,24.45
2017-07-27T10:54:48.439Z,24.45
2017-07-27T10:55:48.438Z,24.54
2017-07-27T10:56:48.741Z,24.54
2017-07-27T10:57:48.116Z,24.73
2017-07-27T10:58:48.742Z,24.8
2017-07-27T10:59:48.751Z,25.07
2017-07-27T11:00:48.426Z,25.02
2017-07-27T11:01:48.420Z,24.61
2017-07-27T11:02:48.415Z,24.64
2017-07-27T11:03:48.097Z,24.64
2017-07-27T11:04:48.410Z,24.8
2017-07-27T11:05:48.714Z,24.61
2017-07-27T11:06:48.716Z,24.5
2017-07-27T11:07:48.090Z,24.53
2017-07-27T11:08:48.396Z,24.42
2017-07-27T11:09:48.702Z,24.16
2017-07-27T11:10:48.390Z,24.01
2017-07-27T11:11:48.384Z,23.89
2017-07-27T11:12:48.701Z,23.85
2017-07-27T11:13:48.064Z,23.9
2017-07-27T11:14:48.689Z,23.95
2017-07-27T11:15:48.596Z,23.87
2017-07-27T11:16:48.370Z,23.7
2017-07-27T11:17:48.050Z,23.65
2017-07-27T11:18:48.099Z,23.55
2017-07-27T11:19:48.662Z,23.4
2017-07-27T11:20:48.345Z,23.31
2017-07-27T11:21:48.661Z,23.38
2017-07-27T11:22:48.028Z,23.27
2017-07-27T11:23:48.047Z,23.23
2017-07-27T11:24:48.663Z,23.11
2017-07-27T11:25:48.641Z,23.01
2017-07-27T11:26:48.638Z,22.97
2017-07-27T11:27:48.316Z,22.89
2017-07-27T11:28:48.008Z,22.78
2017-07-27T11:29:48.307Z,22.82
2017-07-27T11:30:48.614Z,22.89
2017-07-27T11:31:48.617Z,22.9
2017-07-27T11:32:47.977Z,22.86
2017-07-27T11:33:48.293Z,22.89
2017-07-27T11:34:48.595Z,22.99
2017-07-27T11:35:48.276Z,22.97
2017-07-27T11:36:47.970Z,22.92
2017-07-27T11:37:48.629Z,22.99
2017-07-27T11:38:48.573Z,22.93
2017-07-27T11:39:48.259Z,22.94
2017-07-27T11:40:48.261Z,23.11
2017-07-27T11:41:48.249Z,23.08
2017-07-27T11:42:48.249Z,23.2
2017-07-27T11:43:48.555Z,23.19
2017-07-27T11:44:48.546Z,23.23
2017-07-27T11:45:48.537Z,23.17
2017-07-27T11:46:48.540Z,23.17
2017-07-27T11:47:48.215Z,22.97
2017-07-27T11:48:48.525Z,22.86
2017-07-27T11:49:48.518Z,22.74
2017-07-27T11:50:48.553Z,22.75
2017-07-27T11:51:48.198Z,22.83
2017-07-27T11:52:48.511Z,22.87
2017-07-27T11:53:48.499Z,22.92
2017-07-27T11:54:48.177Z,23.01
2017-07-27T11:55:48.490Z,23.09
2017-07-27T11:56:48.166Z,23.4
2017-07-27T11:57:48.527Z,23.5
2017-07-27T11:58:48.478Z,23.55
2017-07-27T11:59:48.151Z,23.45
2017-07-27T12:00:48.145Z,23.38
2017-07-27T12:01:48.456Z,23.24
2017-07-27T12:02:48.446Z,23.23
2017-07-27T12:03:48.467Z,23.14
2017-07-27T12:04:48.123Z,23.07
2017-07-27T12:05:48.431Z,22.94
2017-07-27T12:06:48.456Z,22.92
2017-07-27T12:07:48.109Z,22.87
2017-07-27T12:08:48.115Z,22.82
2017-07-27T12:09:48.105Z,22.99
2017-07-27T12:10:47.786Z,22.77
2017-07-27T12:11:48.408Z,23.01
2017-07-27T12:12:48.089Z,23.27
2017-07-27T12:13:48.077Z,23.52
2017-07-27T12:14:48.399Z,23.62
2017-07-27T12:15:48.069Z,23.77
2017-07-27T12:16:48.380Z,23.76
2017-07-27T12:17:48.371Z,23.7
2017-07-27T12:18:48.387Z,23.6
2017-07-27T12:19:48.048Z,23.5
2017-07-27T12:20:48.041Z,23.42
2017-07-27T12:21:48.046Z,23.42
2017-07-27T12:22:48.343Z,23.38
2017-07-27T12:23:47.727Z,23.58
2017-07-27T12:24:48.028Z,23.7
2017-07-27T12:25:48.021Z,23.72
2017-07-27T12:26:48.332Z,23.76
2017-07-27T12:27:48.011Z,23.89
2017-07-27T12:28:48.332Z,24.44
2017-07-27T12:29:48.000Z,24.64
2017-07-27T12:30:47.999Z,25
2017-07-27T12:31:47.993Z,25.19
2017-07-27T12:32:47.673Z,25.12
2017-07-27T12:33:48.300Z,25
2017-07-27T12:34:47.664Z,25.12
2017-07-27T12:35:48.291Z,25.06
2017-07-27T12:36:47.975Z,25.09
2017-07-27T12:37:48.280Z,25.13
2017-07-27T12:38:47.965Z,24.98
2017-07-27T12:39:47.651Z,24.82
2017-07-27T12:40:47.966Z,24.8
2017-07-27T12:41:48.266Z,24.87
2017-07-27T12:42:48.283Z,24.98
2017-07-27T12:43:48.260Z,24.91
2017-07-27T12:44:47.947Z,25.05
2017-07-27T12:45:48.259Z,24.95
2017-07-27T12:46:48.288Z,25.06
2017-07-27T12:47:48.277Z,25.07
2017-07-27T12:48:47.931Z,25.02
2017-07-27T12:49:48.242Z,24.91
2017-07-27T12:50:47.927Z,24.79
2017-07-27T12:51:47.925Z,24.64
2017-07-27T12:52:48.233Z,24.52
2017-07-27T12:53:48.234Z,24.42
2017-07-27T12:54:47.916Z,24.41
2017-07-27T12:55:48.223Z,24.44
2017-07-27T12:56:48.230Z,24.63